Time;durP1;ratioP1;P1;durP2;ratioP2;P2;SDS_P1;SDS_P2;PMS_P1;PMS_P2;Temp;Humidity;BMP_temperature;BMP_pressure;BME280_temperature;BME280_humidity;BME280_pressure;Samples;Min_cycle;Max_cycle;Signal;HPM_P1;HPM_P2
2022/07/28 00:01:52;;;;;;;3.58;1.45;;;;;;;18.97;52.22;100398.31;5078227;28;20032;-71
2022/07/28 00:04:18;;;;;;;3.17;1.38;;;;;;;18.95;52.35;100408.25;5077049;28;20082;-70
2022/07/28 00:06:43;;;;;;;3.15;1.45;;;;;;;18.93;52.60;100399.34;5076768;28;20044;-71
2022/07/28 00:09:09;;;;;;;3.28;1.40;;;;;;;18.91;52.89;100394.06;5077909;28;20049;-71
2022/07/28 00:11:34;;;;;;;3.47;1.25;;;;;;;18.90;53.10;100392.44;5078028;28;20036;-70
2022/07/28 00:13:59;;;;;;;3.25;1.80;;;;;;;18.87;53.51;100389.50;5059575;28;20029;-70
2022/07/28 00:16:25;;;;;;;3.05;1.45;;;;;;;18.89;54.18;100379.56;5060098;28;20099;-70
2022/07/28 00:18:50;;;;;;;3.22;1.20;;;;;;;18.89;53.69;100385.19;5059778;28;20043;-71
2022/07/28 00:21:16;;;;;;;3.80;1.42;;;;;;;18.85;54.41;100383.41;5023514;28;20033;-70
2022/07/28 00:23:41;;;;;;;3.20;1.58;;;;;;;18.84;54.09;100390.22;5077184;28;20024;-70
2022/07/28 00:26:07;;;;;;;3.67;1.67;;;;;;;18.79;53.73;100387.63;5057638;28;20032;-71
2022/07/28 00:28:33;;;;;;;5.22;1.45;;;;;;;18.76;53.93;100391.97;5077225;28;20088;-70
2022/07/28 00:30:58;;;;;;;4.55;1.33;;;;;;;18.72;53.65;100391.00;5076369;28;20039;-71
2022/07/28 00:33:24;;;;;;;3.13;1.25;;;;;;;18.70;54.17;100387.75;5077507;28;20028;-71
2022/07/28 00:35:49;;;;;;;2.42;1.30;;;;;;;18.69;54.24;100391.69;5075875;28;20078;-70
2022/07/28 00:38:15;;;;;;;3.92;1.30;;;;;;;18.68;55.69;100382.44;5076100;28;20024;-71
2022/07/28 00:43:24;;;;;;;2.67;1.17;;;;;;;18.59;55.02;100380.94;5073859;28;20051;-71
2022/07/28 00:45:50;;;;;;;3.33;1.38;;;;;;;18.59;55.47;100380.94;5076140;28;20036;-70
2022/07/28 00:48:15;;;;;;;4.05;1.58;;;;;;;18.57;55.44;100375.66;5076071;28;20032;-71
2022/07/28 00:50:41;;;;;;;3.45;1.27;;;;;;;18.50;56.09;100367.81;5076924;28;20028;-71
2022/07/28 00:53:07;;;;;;;3.55;1.55;;;;;;;18.47;55.36;100367.66;5059027;28;20094;-71
2022/07/28 00:55:32;;;;;;;4.32;1.55;;;;;;;18.46;55.52;100371.66;5076991;28;20100;-71
2022/07/28 00:57:58;;;;;;;3.25;1.70;;;;;;;18.44;56.50;100368.38;5075272;28;20045;-71
2022/07/28 01:00:23;;;;;;;4.35;1.38;;;;;;;18.43;55.95;100363.94;5075612;28;20024;-71
2022/07/28 01:02:49;;;;;;;2.75;1.52;;;;;;;18.43;56.36;100366.75;5075481;28;20441;-71
2022/07/28 01:05:14;;;;;;;2.70;1.55;;;;;;;18.41;56.77;100366.28;5077019;28;20029;-71
2022/07/28 01:08:03;;;;;;;4.40;1.77;;;;;;;18.37;56.46;100366.16;5075595;28;20536;-71
2022/07/28 01:10:34;;;;;;;2.97;1.48;;;;;;;18.38;56.28;100358.53;5060000;28;20493;-71
2022/07/28 01:13:24;;;;;;;3.92;1.42;;;;;;;18.37;56.70;100354.91;5092001;28;20560;-71
2022/07/28 01:16:10;;;;;;;3.90;1.52;;;;;;;18.31;56.12;100350.69;5071918;28;20032;-71
2022/07/28 01:18:48;;;;;;;2.50;1.35;;;;;;;18.29;56.43;100348.22;5074618;28;20060;-71
2022/07/28 01:21:22;;;;;;;4.65;1.98;;;;;;;18.29;56.52;100351.03;5042468;28;20024;-71
2022/07/28 01:24:01;;;;;;;3.20;1.65;;;;;;;18.28;56.74;100355.03;5069020;28;20029;-71
2022/07/28 01:26:47;;;;;;;4.35;1.70;;;;;;;18.29;57.12;100351.03;5073527;28;20068;-71
2022/07/28 01:29:37;;;;;;;3.70;1.45;;;;;;;18.30;56.85;100344.25;5058412;28;20103;-71
2022/07/28 01:32:09;;;;;;;2.33;1.55;;;;;;;18.28;58.41;100337.34;5070511;28;20037;-71
2022/07/28 01:34:48;;;;;;;4.00;1.87;;;;;;;18.23;57.20;100335.56;5075128;28;20078;-71
2022/07/28 01:37:17;;;;;;;3.28;1.40;;;;;;;18.23;58.33;100335.56;5059087;28;20126;-71
2022/07/28 01:39:43;;;;;;;3.80;1.45;;;;;;;18.26;57.99;100328.44;5057300;28;20478;-71
2022/07/28 01:42:08;;;;;;;6.07;1.48;;;;;;;18.24;58.11;100328.78;5074766;28;20043;-71
2022/07/28 01:44:35;;;;;;;2.67;1.60;;;;;;;18.20;58.71;100316.59;5058362;28;20024;-71
2022/07/28 01:47:01;;;;;;;2.97;1.40;;;;;;;18.18;59.04;100320.94;5058544;28;20362;-71
2022/07/28 01:49:27;;;;;;;3.60;1.50;;;;;;;18.17;58.99;100320.13;5073410;28;20036;-71
2022/07/28 01:51:52;;;;;;;3.03;1.38;;;;;;;18.20;58.75;100324.22;5054647;28;20054;-71
2022/07/28 01:54:18;;;;;;;3.45;1.42;;;;;;;18.15;59.51;100321.63;5073155;28;20020;-71
2022/07/28 01:56:43;;;;;;;3.30;1.40;;;;;;;18.12;59.26;100316.72;5058229;28;20036;-71
2022/07/28 01:59:10;;;;;;;3.60;1.65;;;;;;;18.08;59.35;100316.59;5074395;28;20048;-71
2022/07/28 02:01:37;;;;;;;3.50;1.60;;;;;;;18.07;59.68;100314.94;5057992;28;20130;-71
2022/07/28 02:04:04;;;;;;;4.03;1.63;;;;;;;18.05;59.34;100306.03;5074414;28;20405;-71
2022/07/28 02:06:31;;;;;;;4.70;1.70;;;;;;;17.98;59.04;100312.25;5074765;28;20052;-71
2022/07/28 02:08:57;;;;;;;4.32;1.50;;;;;;;17.96;60.80;100303.34;5074710;28;20044;-71
2022/07/28 02:11:40;;;;;;;4.43;1.30;;;;;;;17.96;59.82;100308.16;5075104;28;20039;-71
2022/07/28 02:14:14;;;;;;;4.93;1.60;;;;;;;17.93;60.91;100303.22;5057119;28;20052;-71
2022/07/28 02:17:01;;;;;;;3.78;1.40;;;;;;;17.90;60.60;100299.13;5058260;28;20032;-71
2022/07/28 02:19:26;;;;;;;5.22;1.63;;;;;;;17.86;60.36;100295.38;5075689;28;20054;-71
2022/07/28 02:21:52;;;;;;;3.95;1.50;;;;;;;17.81;60.47;100302.03;5075838;28;20028;-71
2022/07/28 02:24:25;;;;;;;3.10;1.67;;;;;;;17.78;60.66;100290.66;5057626;28;20488;-71
2022/07/28 02:27:02;;;;;;;4.95;1.48;;;;;;;17.75;60.55;100294.16;5072471;28;20443;-71
2022/07/28 02:29:28;;;;;;;3.00;1.50;;;;;;;17.71;61.03;100288.41;5070926;28;20033;-71
2022/07/28 02:31:56;;;;;;;3.45;1.70;;;;;;;17.68;60.95;100291.09;5074664;28;20032;-71
2022/07/28 02:34:22;;;;;;;2.60;1.30;;;;;;;17.65;61.09;100292.59;5052255;28;20032;-71
2022/07/28 02:36:56;;;;;;;2.55;1.50;;;;;;;17.62;60.95;100293.28;5074197;28;20025;-70
2022/07/28 02:39:24;;;;;;;2.40;1.33;;;;;;;17.56;61.45;100292.69;5074767;28;20084;-70
2022/07/28 02:41:57;;;;;;;2.95;1.27;;;;;;;17.54;61.20;100285.78;5074448;28;20477;-71
2022/07/28 02:44:26;;;;;;;3.38;1.42;;;;;;;17.51;61.87;100294.91;5025897;28;20079;-71
2022/07/28 02:46:52;;;;;;;2.97;1.50;;;;;;;17.50;62.08;100301.69;5054209;28;20482;-71
2022/07/28 02:49:23;;;;;;;3.80;1.20;;;;;;;17.47;62.49;100297.59;5074432;28;20047;-71
2022/07/28 02:51:49;;;;;;;2.50;1.25;;;;;;;17.46;61.65;100295.94;5075366;28;20033;-71
2022/07/28 02:54:16;;;;;;;2.58;1.58;;;;;;;17.41;61.63;100301.75;5057514;28;20032;-71
2022/07/28 02:56:41;;;;;;;3.38;1.48;;;;;;;17.41;62.36;100294.19;5041114;28;20040;-71
2022/07/28 02:59:08;;;;;;;4.18;1.58;;;;;;;17.42;62.52;100295.81;5056982;28;20056;-71
2022/07/28 03:01:33;;;;;;;2.85;1.48;;;;;;;17.39;62.73;100290.88;5025157;28;20032;-71
2022/07/28 03:03:59;;;;;;;4.50;1.45;;;;;;;17.37;62.12;100295.22;5073921;28;20550;-71
2022/07/28 03:06:24;;;;;;;5.15;1.40;;;;;;;17.36;62.99;100287.97;5057764;28;20029;-71
2022/07/28 03:08:50;;;;;;;4.20;1.52;;;;;;;17.37;62.26;100287.59;5055244;28;20100;-71
2022/07/28 03:11:15;;;;;;;4.28;1.52;;;;;;;17.33;62.18;100283.84;5075366;28;20470;-71
2022/07/28 03:13:41;;;;;;;2.88;1.40;;;;;;;17.33;62.81;100288.66;5075107;28;20031;-71
2022/07/28 03:16:07;;;;;;;3.83;1.50;;;;;;;17.30;63.61;100278.94;5057194;28;20103;-71
2022/07/28 03:18:32;;;;;;;2.65;1.40;;;;;;;17.30;62.24;100278.09;5074252;28;20422;-71
2022/07/28 03:20:58;;;;;;;2.58;1.35;;;;;;;17.27;63.05;100281.59;5075086;28;20028;-71
2022/07/28 03:23:36;;;;;;;3.90;1.50;;;;;;;17.24;62.69;100274.69;5077428;28;20055;-71
2022/07/28 03:26:04;;;;;;;2.80;1.38;;;;;;;17.21;63.17;100269.75;5042995;28;20421;-71
2022/07/28 03:28:29;;;;;;;3.00;1.73;;;;;;;17.19;63.70;100267.31;5043870;28;20066;-71
2022/07/28 03:31:04;;;;;;;2.95;1.30;;;;;;;17.14;62.97;100270.31;5077414;28;20094;-71
2022/07/28 03:33:30;;;;;;;4.55;1.60;;;;;;;17.14;63.27;100273.13;5061068;28;20106;-71
2022/07/28 03:35:57;;;;;;;2.47;1.30;;;;;;;17.12;63.50;100275.44;5060809;28;20420;-71
2022/07/28 03:38:24;;;;;;;2.85;1.40;;;;;;;17.07;62.48;100267.25;5060959;28;20028;-71
2022/07/28 03:40:50;;;;;;;4.70;1.90;;;;;;;17.09;62.92;100266.91;5077483;28;20055;-71
2022/07/28 03:43:17;;;;;;;2.08;1.40;;;;;;;17.06;63.11;100276.03;5060311;28;20028;-71
2022/07/28 03:45:43;;;;;;;5.57;1.70;;;;;;;17.01;63.39;100274.22;5094109;28;20024;-71
2022/07/28 03:48:09;;;;;;;1.85;1.40;;;;;;;17.00;63.93;100268.97;5060535;28;20040;-71
2022/07/28 03:50:34;;;;;;;1.92;1.40;;;;;;;16.96;64.23;100266.03;5109800;28;20382;-71
2022/07/28 03:53:01;;;;;;;1.75;1.15;;;;;;;16.92;63.89;100260.28;5027058;28;20032;-71
2022/07/28 03:55:27;;;;;;;2.75;1.45;;;;;;;16.90;63.20;100261.78;5060988;28;20032;-71
2022/07/28 03:57:53;;;;;;;2.83;1.58;;;;;;;16.87;63.30;100257.69;5077615;28;20049;-71
2022/07/28 04:00:18;;;;;;;3.42;1.60;;;;;;;16.85;64.34;100264.78;5078172;28;20032;-71
2022/07/28 04:02:44;;;;;;;3.05;1.48;;;;;;;16.84;63.75;100268.78;5076828;28;20035;-71
2022/07/28 04:05:11;;;;;;;3.55;1.50;;;;;;;16.78;63.77;100270.16;5060458;28;20038;-71
2022/07/28 04:07:37;;;;;;;3.67;1.30;;;;;;;16.78;64.12;100272.94;5076635;28;20036;-71
2022/07/28 04:10:03;;;;;;;4.28;1.63;;;;;;;16.73;63.87;100274.75;5076928;28;20025;-71
2022/07/28 04:12:29;;;;;;;4.78;1.80;;;;;;;16.72;64.01;100275.91;5076763;28;20077;-71
2022/07/28 04:14:54;;;;;;;3.20;1.48;;;;;;;16.69;64.16;100267.38;5077633;28;20024;-71
2022/07/28 04:17:20;;;;;;;2.88;1.60;;;;;;;16.67;64.50;100272.50;5093477;28;20037;-71
2022/07/28 04:19:45;;;;;;;4.15;1.67;;;;;;;16.67;64.52;100270.50;5075911;28;20028;-71
2022/07/28 04:22:10;;;;;;;4.63;1.40;;;;;;;16.63;64.46;100268.72;5077871;28;20044;-71
2022/07/28 04:24:36;;;;;;;4.03;1.70;;;;;;;16.61;64.00;100274.69;5076525;28;20044;-71
2022/07/28 04:27:01;;;;;;;3.78;1.70;;;;;;;16.59;64.21;100271.41;5075777;28;20090;-71
2022/07/28 04:29:27;;;;;;;3.47;1.50;;;;;;;16.58;64.17;100277.34;5071453;28;20491;-71
2022/07/28 04:31:52;;;;;;;4.20;1.35;;;;;;;16.54;64.18;100277.19;5077719;28;20033;-71
2022/07/28 04:34:18;;;;;;;4.93;1.63;;;;;;;16.51;64.13;100277.88;5109364;28;20036;-71
2022/07/28 04:36:43;;;;;;;3.58;1.42;;;;;;;16.53;64.47;100272.75;5057673;28;20500;-71
2022/07/28 04:39:10;;;;;;;3.08;1.67;;;;;;;16.52;64.79;100273.94;5077398;28;20438;-70
2022/07/28 04:41:36;;;;;;;2.58;1.33;;;;;;;16.48;65.04;100273.78;5077308;28;20024;-71
2022/07/28 04:44:01;;;;;;;3.22;1.40;;;;;;;16.47;65.45;100274.94;5059228;28;21174;-71
2022/07/28 04:46:27;;;;;;;4.82;1.33;;;;;;;16.41;64.98;100270.69;5074020;28;20031;-70
2022/07/28 04:48:52;;;;;;;4.60;1.75;;;;;;;16.42;65.37;100271.50;5076028;28;20094;-70
2022/07/28 04:51:18;;;;;;;2.40;1.40;;;;;;;16.43;66.05;100270.34;5059158;28;20465;-70
2022/07/28 04:53:43;;;;;;;4.00;1.90;;;;;;;16.39;65.83;100275.81;5075898;28;20032;-71
2022/07/28 04:56:09;;;;;;;5.95;1.80;;;;;;;16.38;65.74;100278.94;5077063;28;20040;-70
2022/07/28 04:58:34;;;;;;;3.30;1.40;;;;;;;16.38;65.77;100279.78;5076624;28;20102;-71
2022/07/28 05:01:00;;;;;;;2.63;1.33;;;;;;;16.38;66.19;100278.94;5076875;28;20044;-71
2022/07/28 05:03:25;;;;;;;4.80;1.77;;;;;;;16.36;65.73;100284.91;5076074;28;20037;-71
2022/07/28 05:05:51;;;;;;;3.53;1.70;;;;;;;16.36;66.12;100293.31;5075437;28;20077;-71
2022/07/28 05:08:16;;;;;;;4.07;1.63;;;;;;;16.35;65.90;100297.25;5055938;28;20028;-71
2022/07/28 05:10:42;;;;;;;3.22;1.60;;;;;;;16.35;66.00;100290.84;5074329;28;20028;-71
2022/07/28 05:13:07;;;;;;;5.47;1.67;;;;;;;16.36;66.27;100287.72;5076709;28;20024;-71
2022/07/28 05:15:33;;;;;;;3.30;1.55;;;;;;;16.39;66.69;100291.81;5075054;28;20040;-71
2022/07/28 05:17:58;;;;;;;3.78;1.70;;;;;;;16.38;66.06;100290.16;5058452;28;20064;-71
2022/07/28 05:20:24;;;;;;;6.57;1.50;;;;;;;16.39;67.42;100298.22;5058943;28;20032;-71
2022/07/28 05:22:49;;;;;;;2.60;1.52;;;;;;;16.42;66.62;100291.13;5058635;28;20020;-70
2022/07/28 05:25:22;;;;;;;4.90;1.58;;;;;;;16.42;66.24;100288.34;5075205;28;20540;-71
2022/07/28 05:27:47;;;;;;;3.13;1.40;;;;;;;16.45;66.15;100287.66;5073801;28;20024;-71
2022/07/28 05:30:14;;;;;;;4.25;1.48;;;;;;;16.44;67.30;100295.25;5025791;28;20029;-70
2022/07/28 05:32:39;;;;;;;3.95;1.40;;;;;;;16.46;66.95;100286.47;5075211;28;20029;-71
2022/07/28 05:35:05;;;;;;;4.13;1.58;;;;;;;16.48;67.86;100276.56;5070405;28;20444;-71
2022/07/28 05:37:34;;;;;;;4.47;1.60;;;;;;;16.53;68.82;100295.19;5041799;28;20077;-72
2022/07/28 05:40:07;;;;;;;3.35;1.50;;;;;;;16.56;69.20;100282.47;5058364;28;20074;-71
2022/07/28 05:42:34;;;;;;;4.00;1.45;;;;;;;16.58;68.96;100289.38;5108327;28;20485;-71
2022/07/28 05:45:07;;;;;;;2.00;1.60;;;;;;;16.61;69.05;100288.69;5075093;28;20036;-71
2022/07/28 05:47:44;;;;;;;2.15;1.45;;;;;;;16.65;68.59;100289.66;5074856;28;20036;-71
2022/07/28 05:50:09;;;;;;;3.25;1.60;;;;;;;16.70;69.16;100295.06;5058867;28;20508;-71
2022/07/28 05:52:35;;;;;;;2.55;1.40;;;;;;;16.72;67.92;100289.94;5076274;28;20025;-71
2022/07/28 05:55:00;;;;;;;3.85;1.52;;;;;;;16.78;69.86;100287.78;5057973;28;20025;-71
2022/07/28 05:57:26;;;;;;;2.00;1.33;;;;;;;16.82;70.40;100285.94;5075789;28;20044;-71
2022/07/28 05:59:51;;;;;;;3.13;1.27;;;;;;;16.87;69.00;100296.13;5076086;28;20040;-67
2022/07/28 06:02:17;;;;;;;1.98;1.30;;;;;;;16.92;68.95;100298.75;5076076;28;20041;-70
2022/07/28 06:04:42;;;;;;;2.42;1.45;;;;;;;16.97;69.29;100292.94;5074406;28;20489;-68
2022/07/28 06:07:08;;;;;;;3.55;1.40;;;;;;;17.02;68.42;100303.94;5076116;28;20044;-68
2022/07/28 06:09:33;;;;;;;4.53;1.85;;;;;;;17.08;69.48;100293.34;5074644;28;20033;-68
2022/07/28 06:11:59;;;;;;;5.43;1.55;;;;;;;17.12;70.03;100297.91;5028315;28;20041;-68
2022/07/28 06:14:24;;;;;;;5.00;1.33;;;;;;;17.19;67.49;100300.16;5074714;28;20032;-68
2022/07/28 06:16:50;;;;;;;6.32;1.40;;;;;;;17.24;68.26;100299.94;5058170;28;20029;-68
2022/07/28 06:19:18;;;;;;;3.80;1.50;;;;;;;17.32;70.89;100298.22;5057281;28;20060;-68
2022/07/28 06:21:44;;;;;;;4.60;1.65;;;;;;;17.38;70.34;100294.03;5041272;28;20481;-68
2022/07/28 06:24:09;;;;;;;5.50;1.95;;;;;;;17.46;71.38;100300.72;5041339;28;20035;-68
2022/07/28 06:26:38;;;;;;;5.53;1.50;;;;;;;17.52;69.64;100302.97;5072816;28;20544;-68
2022/07/28 06:29:04;;;;;;;2.70;1.67;;;;;;;17.60;70.70;100304.84;5074467;28;20485;-68
2022/07/28 06:31:30;;;;;;;4.35;2.20;;;;;;;17.69;70.07;100304.78;5074257;28;20039;-68
2022/07/28 06:33:55;;;;;;;2.25;1.30;;;;;;;17.75;67.65;100299.78;5074717;28;20028;-72
2022/07/28 06:36:21;;;;;;;2.50;1.48;;;;;;;17.82;66.06;100295.22;5074220;28;20460;-69
2022/07/28 06:38:46;;;;;;;4.35;1.30;;;;;;;17.91;65.67;100302.75;5074391;28;20094;-69
2022/07/28 06:41:12;;;;;;;2.65;1.40;;;;;;;17.99;65.96;100304.63;5085320;28;20032;-66
2022/07/28 06:43:37;;;;;;;2.95;1.15;;;;;;;18.07;65.03;100309.31;5053998;28;20056;-65
2022/07/28 06:46:02;;;;;;;4.72;2.08;;;;;;;18.14;67.94;100309.59;5057737;28;20039;-66
2022/07/28 06:48:28;;;;;;;5.40;1.77;;;;;;;18.19;68.35;100308.50;5073358;28;20028;-66
2022/07/28 06:50:55;;;;;;;4.55;2.08;;;;;;;18.23;69.53;100312.28;5054523;28;20079;-66
2022/07/28 06:53:22;;;;;;;3.72;1.25;;;;;;;18.31;66.78;100305.72;5072349;28;20024;-65
2022/07/28 06:55:47;;;;;;;3.15;1.40;;;;;;;18.41;66.80;100313.66;5057658;28;20028;-66
2022/07/28 06:58:13;;;;;;;6.22;1.92;;;;;;;18.49;67.64;100307.09;5076353;28;20048;-66
2022/07/28 07:00:39;;;;;;;4.40;1.90;;;;;;;18.56;68.04;100302.91;5078163;28;20040;-66
2022/07/28 07:03:04;;;;;;;4.13;1.73;;;;;;;18.63;68.02;100308.75;5074668;28;20037;-66
2022/07/28 07:05:30;;;;;;;3.92;2.10;;;;;;;18.69;69.08;100312.94;5060686;28;20040;-66
2022/07/28 07:07:56;;;;;;;5.00;1.65;;;;;;;18.78;67.60;100315.66;5058740;28;20037;-66
2022/07/28 07:10:22;;;;;;;6.25;1.90;;;;;;;18.89;67.80;100311.22;5061299;28;20037;-66
2022/07/28 07:12:47;;;;;;;4.78;1.88;;;;;;;18.98;66.50;100309.88;5060377;28;20381;-66
2022/07/28 07:15:13;;;;;;;6.95;1.95;;;;;;;19.08;65.47;100305.72;5061260;28;20037;-66
2022/07/28 07:17:38;;;;;;;4.97;1.92;;;;;;;19.17;66.02;100308.44;5077599;28;20178;-66
2022/07/28 07:20:05;;;;;;;4.53;2.10;;;;;;;19.27;65.17;100307.91;5061006;28;20024;-66
2022/07/28 07:22:31;;;;;;;6.88;1.88;;;;;;;19.37;65.41;100317.84;5078982;28;20028;-66
2022/07/28 07:24:56;;;;;;;3.10;1.55;;;;;;;19.46;64.47;100312.88;5077862;28;20090;-66
2022/07/28 07:27:21;;;;;;;4.03;1.35;;;;;;;19.56;64.11;100311.56;5076172;28;20425;-66
2022/07/28 07:29:47;;;;;;;3.38;1.60;;;;;;;19.64;63.81;100314.19;5076768;28;20504;-66
2022/07/28 07:32:12;;;;;;;4.63;1.52;;;;;;;19.75;62.43;100308.06;5077482;28;20127;-66
2022/07/28 07:34:38;;;;;;;4.38;1.38;;;;;;;19.87;62.04;100319.25;5060688;28;20024;-66
2022/07/28 07:37:05;;;;;;;4.47;1.50;;;;;;;19.95;61.33;100318.28;5060810;28;20036;-66
2022/07/28 07:39:31;;;;;;;3.97;1.58;;;;;;;20.06;62.70;100324.19;5075562;28;20064;-66
2022/07/28 07:41:56;;;;;;;4.65;1.83;;;;;;;20.15;63.09;100322.00;5060666;28;20032;-66
2022/07/28 07:44:22;;;;;;;5.63;1.63;;;;;;;20.26;62.60;100317.47;5060635;28;20024;-66
2022/07/28 07:46:47;;;;;;;4.95;1.45;;;;;;;20.37;62.65;100311.28;5060700;28;20423;-66
2022/07/28 07:49:15;;;;;;;5.90;1.35;;;;;;;20.51;61.42;100314.44;5077266;28;20523;-66
2022/07/28 07:51:41;;;;;;;5.03;1.80;;;;;;;20.62;60.59;100306.28;5060538;28;20028;-66
2022/07/28 07:54:07;;;;;;;5.22;1.73;;;;;;;20.72;59.86;100316.97;5076955;28;20086;-66
2022/07/28 07:56:32;;;;;;;3.95;1.40;;;;;;;20.90;59.08;100323.03;5077072;28;20083;-66
2022/07/28 07:58:58;;;;;;;3.22;1.30;;;;;;;21.03;58.53;100326.53;5076579;28;20087;-66
2022/07/28 08:01:23;;;;;;;4.68;1.40;;;;;;;21.12;57.62;100321.50;5076930;28;20090;-65
2022/07/28 08:03:49;;;;;;;6.35;1.70;;;;;;;21.23;57.50;100316.06;5076715;28;20080;-66
2022/07/28 08:06:15;;;;;;;3.90;1.42;;;;;;;21.34;57.79;100319.94;5060235;28;20035;-66
2022/07/28 08:08:41;;;;;;;7.40;1.50;;;;;;;21.38;56.95;100316.03;5058957;28;20385;-66
2022/07/28 08:11:06;;;;;;;4.07;1.52;;;;;;;21.46;56.34;100314.19;5056946;28;20095;-66
2022/07/28 08:13:32;;;;;;;4.47;1.50;;;;;;;21.50;55.51;100312.22;5072004;28;20028;-66
2022/07/28 08:15:58;;;;;;;5.97;1.30;;;;;;;21.55;55.63;100319.59;5060161;28;20043;-66
2022/07/28 08:20:49;;;;;;;5.90;1.48;;;;;;;21.61;55.05;100318.91;4994839;28;20050;-65
2022/07/28 08:23:15;;;;;;;3.78;1.38;;;;;;;21.61;54.64;100313.25;4985795;28;20026;-65
2022/07/28 08:25:40;;;;;;;4.05;1.30;;;;;;;21.67;54.19;100322.25;4989498;28;20038;-65
2022/07/28 08:28:06;;;;;;;6.53;1.75;;;;;;;21.67;54.09;100322.25;4987871;28;20478;-65
2022/07/28 08:30:31;;;;;;;3.88;1.40;;;;;;;21.66;53.86;100319.81;4999087;28;20096;-64
2022/07/28 08:32:57;;;;;;;2.38;1.25;;;;;;;21.70;54.33;100315.84;5003817;28;20037;-64
2022/07/28 08:35:24;;;;;;;4.68;1.48;;;;;;;21.74;54.44;100318.75;5000304;28;20034;-64
2022/07/28 08:37:49;;;;;;;4.53;1.30;;;;;;;21.74;54.78;100313.91;4971579;28;20080;-65
2022/07/28 08:40:15;;;;;;;8.90;1.52;;;;;;;21.78;54.41;100311.16;4952035;28;20034;-65
2022/07/28 08:42:56;;;;;;;6.57;1.25;;;;;;;21.87;54.07;100314.56;4985172;28;20033;-65
2022/07/28 08:45:22;;;;;;;5.75;1.67;;;;;;;21.92;53.82;100314.22;4986699;28;20090;-65
2022/07/28 08:47:48;;;;;;;4.32;1.25;;;;;;;22.01;53.86;100303.53;4970330;28;20497;-65
2022/07/28 08:50:14;;;;;;;5.25;1.50;;;;;;;22.11;53.35;100309.72;5002843;28;20081;-65
2022/07/28 08:52:40;;;;;;;7.30;1.17;;;;;;;22.19;53.21;100305.88;4978020;28;20023;-65
2022/07/28 08:55:07;;;;;;;3.17;1.38;;;;;;;22.25;52.85;100305.16;4982516;28;20029;-65
2022/07/28 08:57:36;;;;;;;6.10;1.52;;;;;;;22.35;52.42;100300.88;4982979;28;20054;-65
2022/07/28 09:00:04;;;;;;;4.15;1.50;;;;;;;22.39;51.98;100313.06;4978174;28;20391;-65
2022/07/28 09:02:29;;;;;;;7.07;1.58;;;;;;;22.46;52.09;100310.34;4988309;28;20482;-65
2022/07/28 09:04:55;;;;;;;5.93;1.30;;;;;;;22.53;51.92;100303.97;4982365;28;20137;-65
2022/07/28 09:07:22;;;;;;;5.05;1.35;;;;;;;22.56;51.35;100300.41;4984972;28;20034;-64
2022/07/28 09:09:48;;;;;;;6.05;1.17;;;;;;;22.69;51.12;100295.34;4985876;28;20106;-64
2022/07/28 09:12:13;;;;;;;5.22;1.17;;;;;;;22.70;51.02;100300.59;4985287;28;20033;-65
2022/07/28 09:14:39;;;;;;;4.75;1.45;;;;;;;22.73;50.49;100293.38;5007278;28;20037;-65
2022/07/28 09:17:04;;;;;;;2.92;1.40;;;;;;;22.85;50.27;100290.31;4986929;28;20572;-65
2022/07/28 09:19:30;;;;;;;4.57;1.30;;;;;;;23.01;50.67;100295.00;4985640;28;20112;-65
2022/07/28 09:21:55;;;;;;;4.07;1.17;;;;;;;23.21;49.55;100293.66;5004964;28;20040;-65
2022/07/28 09:24:38;;;;;;;6.45;1.10;;;;;;;23.48;48.92;100293.56;4989865;28;20068;-65
2022/07/28 09:27:14;;;;;;;6.82;1.60;;;;;;;23.64;48.31;100291.31;5003297;28;20398;-65
2022/07/28 09:29:43;;;;;;;4.90;1.33;;;;;;;23.85;47.96;100291.59;4997436;28;20026;-64
2022/07/28 09:32:09;;;;;;;6.43;1.27;;;;;;;24.07;47.33;100292.63;4989390;28;20029;-64
2022/07/28 09:34:39;;;;;;;4.60;1.35;;;;;;;24.35;46.99;100279.03;4989401;28;20038;-65
2022/07/28 09:37:04;;;;;;;5.82;1.30;;;;;;;24.57;46.46;100286.53;4993113;28;20057;-65
2022/07/28 09:39:31;;;;;;;4.47;1.08;;;;;;;24.83;46.93;100288.34;5015000;28;20026;-65
2022/07/28 09:41:57;;;;;;;5.32;1.67;;;;;;;25.13;45.75;100279.56;4965050;28;20043;-65
2022/07/28 09:44:23;;;;;;;5.90;1.30;;;;;;;25.41;45.22;100283.78;4986165;28;20499;-65
2022/07/28 09:46:49;;;;;;;4.13;1.23;;;;;;;25.72;45.20;100281.41;5004894;28;20045;-65
2022/07/28 09:49:15;;;;;;;3.60;1.00;;;;;;;26.02;44.44;100283.91;4996258;28;20049;-65
2022/07/28 09:51:40;;;;;;;5.35;1.00;;;;;;;26.30;42.88;100285.97;4993933;28;20034;-65
2022/07/28 09:54:13;;;;;;;3.63;1.20;;;;;;;26.57;41.99;100280.66;4998371;28;20663;-65
2022/07/28 09:56:40;;;;;;;4.35;1.20;;;;;;;26.92;41.97;100279.78;5002632;28;20129;-65
2022/07/28 09:59:07;;;;;;;8.05;1.02;;;;;;;27.16;40.60;100278.13;4976941;28;20030;-65
2022/07/28 10:01:32;;;;;;;5.53;1.55;;;;;;;27.46;39.40;100284.50;4994719;28;20037;-65
2022/07/28 10:03:58;;;;;;;2.30;0.80;;;;;;;27.77;40.01;100276.97;4987266;28;20033;-65
2022/07/28 10:06:28;;;;;;;3.55;0.82;;;;;;;28.09;40.41;100279.63;4984391;28;20038;-65
2022/07/28 10:08:55;;;;;;;4.72;1.10;;;;;;;28.32;38.76;100279.03;4990779;28;20034;-65
2022/07/28 10:11:25;;;;;;;6.32;1.20;;;;;;;28.55;38.11;100266.22;4974895;28;20498;-65
2022/07/28 10:14:04;;;;;;;7.05;1.30;;;;;;;28.78;37.75;100274.13;4997574;28;20022;-66
2022/07/28 10:16:32;;;;;;;2.90;0.95;;;;;;;28.96;38.02;100271.88;4958567;28;20047;-65
2022/07/28 10:18:59;;;;;;;3.63;1.00;;;;;;;29.14;36.70;100275.38;4987906;28;20034;-65
2022/07/28 10:21:25;;;;;;;2.95;1.02;;;;;;;29.36;36.69;100270.22;5010706;28;20436;-65
2022/07/28 10:23:52;;;;;;;2.88;0.80;;;;;;;29.46;35.68;100279.88;4967315;28;20025;-65
2022/07/28 10:26:20;;;;;;;4.03;1.00;;;;;;;29.61;36.03;100271.88;5008782;28;20064;-66
2022/07/28 10:28:49;;;;;;;2.70;0.90;;;;;;;29.75;35.78;100268.84;5021070;28;20088;-66
2022/07/28 10:31:21;;;;;;;3.03;0.80;;;;;;;29.85;35.25;100278.53;4991799;28;20025;-66
2022/07/28 10:33:47;;;;;;;5.75;1.20;;;;;;;29.98;35.61;100275.88;5016463;28;20109;-66
2022/07/28 10:36:13;;;;;;;3.30;0.90;;;;;;;30.06;34.00;100281.06;4996630;28;20116;-66
2022/07/28 10:38:38;;;;;;;3.53;0.85;;;;;;;30.19;34.90;100278.38;4991579;28;20030;-66
2022/07/28 10:41:06;;;;;;;2.53;0.98;;;;;;;30.32;35.13;100270.03;4986734;28;20030;-66
2022/07/28 10:43:31;;;;;;;3.33;1.15;;;;;;;30.43;34.60;100276.38;4993604;28;20105;-66
2022/07/28 10:45:57;;;;;;;3.33;0.88;;;;;;;30.55;34.24;100271.25;5003316;28;20079;-66
2022/07/28 10:48:23;;;;;;;4.75;1.05;;;;;;;30.66;33.25;100271.88;4997132;28;20479;-66
2022/07/28 10:50:49;;;;;;;2.70;0.73;;;;;;;30.81;33.58;100261.78;4983465;28;20033;-66
2022/07/28 10:53:47;;;;;;;3.15;1.00;;;;;;;30.94;33.74;100268.47;4959969;28;20096;-66
2022/07/28 10:56:28;;;;;;;4.40;0.95;;;;;;;31.10;32.36;100264.88;4997020;28;20029;-65
2022/07/28 10:59:13;;;;;;;3.90;0.90;;;;;;;31.21;31.33;100261.78;4997114;28;20433;-66
2022/07/28 11:01:39;;;;;;;4.32;0.95;;;;;;;31.38;30.84;100260.63;5018547;28;20061;-66
2022/07/28 11:04:08;;;;;;;3.30;0.85;;;;;;;31.56;30.54;100268.03;4988381;28;20112;-66
2022/07/28 11:06:44;;;;;;;4.70;0.70;;;;;;;31.69;30.18;100262.41;4991951;28;20490;-66
2022/07/28 11:09:16;;;;;;;4.03;0.70;;;;;;;31.79;29.59;100265.03;4987829;28;20042;-66
2022/07/28 11:11:41;;;;;;;2.13;0.50;;;;;;;31.86;28.87;100269.78;5014732;28;20057;-66
2022/07/28 11:14:23;;;;;;;2.70;0.88;;;;;;;31.90;29.23;100270.53;5007768;28;20584;-66
2022/07/28 11:16:49;;;;;;;2.78;0.57;;;;;;;31.94;29.47;100267.59;5010205;28;20044;-66
2022/07/28 11:19:17;;;;;;;4.85;0.90;;;;;;;31.93;28.60;100261.03;5002616;28;20445;-66
2022/07/28 11:22:14;;;;;;;4.00;0.70;;;;;;;31.92;28.44;100261.47;4977140;28;20058;-67
2022/07/28 11:27:38;;;;;;;4.57;0.60;;;;;;;31.78;27.80;100260.53;5013829;28;20041;-66
2022/07/28 11:30:05;;;;;;;3.67;0.90;;;;;;;31.65;27.89;100268.25;5022080;28;20088;-66
2022/07/28 11:32:49;;;;;;;5.47;0.70;;;;;;;31.59;27.87;100265.09;4991421;28;20453;-66
2022/07/28 11:35:14;;;;;;;2.78;0.80;;;;;;;31.49;28.34;100262.47;5003077;28;20033;-66